createdAt,value
2018-11-03T00:00:24.360Z,12.27
2018-11-03T00:02:52.826Z,11.33
2018-11-03T00:05:21.286Z,9.07
2018-11-03T00:07:49.780Z,10.50
2018-11-03T00:10:18.249Z,11.30
2018-11-03T00:12:47.329Z,12.37
2018-11-03T00:15:15.746Z,12.13
2018-11-03T00:17:45.511Z,14.67
2018-11-03T00:20:13.938Z,13.23
2018-11-03T00:22:42.369Z,15.20
2018-11-03T00:25:11.259Z,14.47
2018-11-03T00:27:39.722Z,12.37
2018-11-03T00:30:10.529Z,9.73
2018-11-03T00:32:39.033Z,10.07
2018-11-03T00:35:07.498Z,10.70
2018-11-03T00:37:36.023Z,11.70
2018-11-03T00:40:04.826Z,15.70
2018-11-03T00:42:33.247Z,10.83
2018-11-03T00:45:01.727Z,10.93
2018-11-03T00:47:30.198Z,13.13
2018-11-03T00:49:58.664Z,12.53
2018-11-03T00:52:27.199Z,12.60
2018-11-03T00:54:55.590Z,9.37
2018-11-03T00:57:24.013Z,11.67
2018-11-03T00:59:52.451Z,14.73
2018-11-03T01:02:20.885Z,11.57
2018-11-03T01:04:49.288Z,10.27
2018-11-03T01:07:17.774Z,14.10
2018-11-03T01:09:46.197Z,11.47
2018-11-03T01:12:14.612Z,10.10
2018-11-03T01:14:43.068Z,15.10
2018-11-03T01:17:11.493Z,17.90
2018-11-03T01:19:40.060Z,10.40
2018-11-03T01:22:08.512Z,11.00
2018-11-03T01:24:36.961Z,12.13
2018-11-03T01:27:05.905Z,13.57
2018-11-03T01:29:34.309Z,9.63
2018-11-03T01:32:02.844Z,11.13
2018-11-03T01:34:31.249Z,8.87
2018-11-03T01:36:59.792Z,10.37
2018-11-03T01:39:28.220Z,10.77
2018-11-03T01:41:56.697Z,11.63
2018-11-03T01:44:25.133Z,11.70
2018-11-03T01:46:53.582Z,8.53
2018-11-03T01:49:22.028Z,11.47
2018-11-03T01:51:50.485Z,13.00
2018-11-03T01:54:18.927Z,9.30
2018-11-03T01:56:47.349Z,12.37
2018-11-03T01:59:15.792Z,12.73
2018-11-03T02:01:44.257Z,9.53
2018-11-03T02:04:12.730Z,10.30
2018-11-03T02:06:41.155Z,10.60
2018-11-03T02:09:10.466Z,13.57
2018-11-03T02:11:38.909Z,12.60
2018-11-03T02:14:07.424Z,11.90
2018-11-03T02:16:35.854Z,10.50
2018-11-03T02:19:04.360Z,9.30
2018-11-03T02:21:38.240Z,11.87
2018-11-03T02:24:06.929Z,9.43
2018-11-03T02:26:35.475Z,11.53
2018-11-03T02:29:04.099Z,10.53
2018-11-03T02:31:32.522Z,11.77
2018-11-03T02:34:00.951Z,11.47
2018-11-03T02:36:29.381Z,12.23
2018-11-03T02:38:57.798Z,9.90
2018-11-03T02:41:26.205Z,9.23
2018-11-03T02:43:54.605Z,9.67
2018-11-03T02:46:23.057Z,10.33
2018-11-03T02:48:51.480Z,9.83
2018-11-03T02:51:19.878Z,10.43
2018-11-03T02:53:48.273Z,13.77
2018-11-03T02:56:16.702Z,10.60
2018-11-03T02:58:45.125Z,9.30
2018-11-03T03:01:13.540Z,13.80
2018-11-03T03:03:42.030Z,10.30
2018-11-03T03:06:10.473Z,10.90
2018-11-03T03:08:38.898Z,11.90
2018-11-03T03:11:07.294Z,11.23
2018-11-03T03:13:35.717Z,14.27
2018-11-03T03:16:04.137Z,9.57
2018-11-03T03:18:32.565Z,9.50
2018-11-03T03:21:00.985Z,9.90
2018-11-03T03:23:29.482Z,9.13
2018-11-03T03:25:57.874Z,10.30
2018-11-03T03:28:26.305Z,10.27
2018-11-03T03:30:54.757Z,8.97
2018-11-03T03:33:23.191Z,11.23
2018-11-03T03:35:51.613Z,11.10
2018-11-03T03:38:20.205Z,11.77
2018-11-03T03:40:48.693Z,11.87
2018-11-03T03:43:17.160Z,12.83
2018-11-03T03:45:45.605Z,10.40
2018-11-03T03:48:14.063Z,11.73
2018-11-03T03:50:42.492Z,11.70
2018-11-03T03:53:10.960Z,10.33
2018-11-03T03:55:39.414Z,11.93
2018-11-03T03:58:07.861Z,12.50
2018-11-03T04:00:36.311Z,10.90
2018-11-03T04:03:04.826Z,10.73
2018-11-03T04:05:33.269Z,11.27
2018-11-03T04:08:01.763Z,11.03
2018-11-03T04:10:30.237Z,15.40
2018-11-03T04:12:58.673Z,12.03
2018-11-03T04:15:27.145Z,10.53
2018-11-03T04:17:55.710Z,11.43
2018-11-03T04:20:27.985Z,11.23
2018-11-03T04:22:56.421Z,12.73
2018-11-03T04:25:24.873Z,9.57
2018-11-03T04:27:53.333Z,10.33
2018-11-03T04:30:21.799Z,10.50
2018-11-03T04:32:50.249Z,9.20
2018-11-03T04:35:18.739Z,9.87
2018-11-03T04:37:47.170Z,11.10
2018-11-03T04:40:15.601Z,12.10
2018-11-03T04:42:44.052Z,12.20
2018-11-03T04:45:13.114Z,12.97
2018-11-03T04:47:41.508Z,12.10
2018-11-03T04:50:10.628Z,10.70
2018-11-03T04:52:39.213Z,12.67
2018-11-03T04:55:08.959Z,12.53
2018-11-03T04:57:37.394Z,10.93
2018-11-03T05:00:06.447Z,9.57
2018-11-03T05:02:34.875Z,14.07
2018-11-03T05:05:03.425Z,11.53
2018-11-03T05:07:31.868Z,11.60
2018-11-03T05:10:00.346Z,11.00
2018-11-03T05:12:28.765Z,12.17
2018-11-03T05:14:57.225Z,14.37
2018-11-03T05:17:25.660Z,13.50
2018-11-03T05:19:54.128Z,12.00
2018-11-03T05:22:22.622Z,14.17
2018-11-03T05:24:51.079Z,12.93
2018-11-03T05:27:19.523Z,13.93
2018-11-03T05:29:47.978Z,13.40
2018-11-03T05:32:16.441Z,12.10
2018-11-03T05:34:44.926Z,15.33
2018-11-03T05:37:13.345Z,13.57
2018-11-03T05:39:41.826Z,14.87
2018-11-03T05:42:10.290Z,14.30
2018-11-03T05:44:38.804Z,16.10
2018-11-03T05:47:07.318Z,13.73
2018-11-03T05:49:35.788Z,13.10
2018-11-03T05:52:04.277Z,10.63
2018-11-03T05:54:32.756Z,13.73
2018-11-03T05:57:01.156Z,12.90
2018-11-03T05:59:29.606Z,14.17
2018-11-03T06:01:58.060Z,11.70
2018-11-03T06:04:26.546Z,14.20
2018-11-03T06:06:54.987Z,13.10
2018-11-03T06:09:23.434Z,11.03
2018-11-03T06:11:51.873Z,14.03
2018-11-03T06:14:20.378Z,12.33
2018-11-03T06:16:48.798Z,10.73
2018-11-03T06:19:17.299Z,12.27
2018-11-03T06:21:45.762Z,16.80
2018-11-03T06:24:14.209Z,13.13
2018-11-03T06:26:42.640Z,11.47
2018-11-03T06:29:11.101Z,12.50
2018-11-03T06:31:39.552Z,13.90
2018-11-03T06:34:07.988Z,13.93
2018-11-03T06:36:36.437Z,15.00
2018-11-03T06:39:06.742Z,11.83
2018-11-03T06:41:35.068Z,12.13
2018-11-03T06:44:03.558Z,11.93
2018-11-03T06:46:32.110Z,11.93
2018-11-03T06:49:36.301Z,13.47
2018-11-03T06:52:04.881Z,9.50
2018-11-03T06:54:33.307Z,11.50
2018-11-03T06:57:01.769Z,10.13
2018-11-03T06:59:30.243Z,13.00
2018-11-03T07:01:59.271Z,12.43
2018-11-03T07:04:27.940Z,10.07
2018-11-03T07:06:56.421Z,10.07
2018-11-03T07:09:24.826Z,11.70
2018-11-03T07:11:53.312Z,8.67
2018-11-03T07:14:21.712Z,11.47
2018-11-03T07:16:50.139Z,13.60
2018-11-03T07:19:19.138Z,8.53
2018-11-03T07:21:47.705Z,9.73
2018-11-03T07:24:16.000Z,8.93
2018-11-03T07:26:44.444Z,13.20
2018-11-03T07:29:12.849Z,8.03
2018-11-03T07:31:41.857Z,8.23
2018-11-03T07:34:10.306Z,11.03
2018-11-03T07:36:38.733Z,9.33
2018-11-03T07:39:08.273Z,7.70
2018-11-03T07:41:36.870Z,8.17
2018-11-03T07:44:06.735Z,9.70
2018-11-03T07:46:35.238Z,8.37
2018-11-03T07:49:03.889Z,11.93
2018-11-03T07:51:32.169Z,9.70
2018-11-03T07:54:00.593Z,10.97
2018-11-03T07:56:29.073Z,7.67
2018-11-03T07:58:57.502Z,7.80
2018-11-03T08:01:25.948Z,9.13
2018-11-03T08:03:54.505Z,9.40
2018-11-03T08:06:22.985Z,6.47
2018-11-03T08:11:15.130Z,8.87
2018-11-03T08:13:44.027Z,8.00
2018-11-03T08:16:12.493Z,8.80
2018-11-03T08:18:40.955Z,12.40
2018-11-03T08:21:09.394Z,11.67
2018-11-03T08:23:37.916Z,9.30
2018-11-03T08:26:06.421Z,16.33
2018-11-03T08:28:34.902Z,8.20
2018-11-03T08:31:03.413Z,12.00
2018-11-03T08:33:31.836Z,11.80
2018-11-03T08:36:00.283Z,11.97
2018-11-03T08:38:28.725Z,12.83
2018-11-03T08:40:57.198Z,10.03
2018-11-03T08:43:25.631Z,12.03
2018-11-03T08:45:54.085Z,9.67
2018-11-03T08:48:23.657Z,9.30
2018-11-03T08:50:52.177Z,12.13
2018-11-03T08:53:20.605Z,7.23
2018-11-03T08:55:49.076Z,10.03
2018-11-03T08:58:17.511Z,7.37
2018-11-03T09:00:46.003Z,10.03
2018-11-03T09:03:14.445Z,9.27
2018-11-03T09:05:42.903Z,8.43
2018-11-03T09:08:11.315Z,9.60
2018-11-03T09:10:39.795Z,7.17
2018-11-03T09:13:08.235Z,9.33
2018-11-03T09:15:36.661Z,7.13
2018-11-03T09:18:05.158Z,8.93
2018-11-03T09:20:33.582Z,7.97
2018-11-03T09:23:02.249Z,8.57
2018-11-03T09:25:30.702Z,7.80
2018-11-03T09:27:59.166Z,6.87
2018-11-03T09:30:27.594Z,9.60
2018-11-03T09:32:56.049Z,7.00
2018-11-03T09:35:24.477Z,8.33
2018-11-03T09:37:52.918Z,10.33
2018-11-03T09:40:21.569Z,11.13
2018-11-03T09:42:50.191Z,9.30
2018-11-03T09:45:18.605Z,12.47
2018-11-03T09:47:47.061Z,10.57
2018-11-03T09:50:16.998Z,11.23
2018-11-03T09:52:45.602Z,11.03
2018-11-03T09:55:16.068Z,11.07
2018-11-03T09:57:44.601Z,10.00
2018-11-03T10:00:16.637Z,10.43
2018-11-03T10:02:45.201Z,12.90
2018-11-03T10:05:14.420Z,14.60
2018-11-03T10:07:42.899Z,13.88
2018-11-03T10:10:13.973Z,9.90
2018-11-03T10:12:42.552Z,13.03
2018-11-03T10:15:11.432Z,13.07
2018-11-03T10:17:39.966Z,12.27
2018-11-03T10:20:10.014Z,16.67
2018-11-03T10:22:39.670Z,16.83
2018-11-03T10:25:10.323Z,14.13
2018-11-03T10:27:38.779Z,13.47
2018-11-03T10:30:08.563Z,12.37
2018-11-03T10:32:37.537Z,12.03
2018-11-03T10:35:06.223Z,9.30
2018-11-03T10:37:34.734Z,10.60
2018-11-03T10:40:03.237Z,11.93
2018-11-03T10:42:31.717Z,10.47
2018-11-03T10:45:00.181Z,9.07
2018-11-03T10:47:28.615Z,9.23
2018-11-03T10:49:57.033Z,11.27
2018-11-03T10:52:25.522Z,8.37
2018-11-03T10:54:53.980Z,9.83
2018-11-03T10:57:22.431Z,9.50
2018-11-03T10:59:50.926Z,10.97
2018-11-03T11:02:24.693Z,9.40
2018-11-03T11:04:58.422Z,8.50
2018-11-03T11:08:34.711Z,9.60
2018-11-03T11:11:08.557Z,10.70
2018-11-03T11:13:41.634Z,10.97
2018-11-03T11:16:10.129Z,8.93
2018-11-03T11:18:38.588Z,8.27
2018-11-03T11:21:07.065Z,8.80
2018-11-03T11:23:35.777Z,9.10
2018-11-03T11:26:04.477Z,10.47
2018-11-03T11:28:32.937Z,9.87
2018-11-03T11:31:01.388Z,10.93
2018-11-03T11:33:29.826Z,11.07
2018-11-03T11:35:58.254Z,12.40
2018-11-03T11:38:26.683Z,8.30
2018-11-03T11:40:55.124Z,7.60
2018-11-03T11:43:23.565Z,9.83
2018-11-03T11:45:51.985Z,5.17
2018-11-03T11:48:20.449Z,5.80
2018-11-03T11:50:48.845Z,6.70
2018-11-03T11:53:17.288Z,10.13
2018-11-03T11:55:45.716Z,9.43
2018-11-03T11:58:14.163Z,8.50
2018-11-03T12:00:43.700Z,9.07
2018-11-03T12:03:12.278Z,8.60
2018-11-03T12:05:40.716Z,8.03
2018-11-03T12:08:09.134Z,9.60
2018-11-03T12:10:37.625Z,11.93
2018-11-03T12:13:06.243Z,10.47
2018-11-03T12:15:34.674Z,9.40
2018-11-03T12:18:03.158Z,10.70
2018-11-03T12:20:31.725Z,11.93
2018-11-03T12:23:00.181Z,10.23
2018-11-03T12:25:28.650Z,9.97
2018-11-03T12:27:57.028Z,11.17
2018-11-03T12:30:27.604Z,9.57
2018-11-03T12:32:56.021Z,10.27
2018-11-03T12:35:24.425Z,10.53
2018-11-03T12:37:52.846Z,12.00
2018-11-03T12:40:21.281Z,10.03
2018-11-03T12:42:49.739Z,8.63
2018-11-03T12:45:18.159Z,8.90
2018-11-03T12:47:47.666Z,7.70
2018-11-03T12:50:17.325Z,8.93
2018-11-03T12:52:45.910Z,11.40
2018-11-03T12:55:14.361Z,9.50
2018-11-03T12:57:43.385Z,8.73
2018-11-03T13:00:15.262Z,5.87
2018-11-03T13:02:44.876Z,7.20
2018-11-03T13:05:13.560Z,6.73
2018-11-03T13:07:43.190Z,6.50
2018-11-03T13:10:12.009Z,7.33
2018-11-03T13:12:41.215Z,7.47
2018-11-03T13:15:10.730Z,7.90
2018-11-03T13:17:39.397Z,7.03
2018-11-03T13:20:09.403Z,5.27
2018-11-03T13:22:37.877Z,5.17
2018-11-03T13:25:07.433Z,5.90
2018-11-03T13:27:35.834Z,6.13
2018-11-03T13:30:04.367Z,8.47
2018-11-03T13:32:32.837Z,24.83
2018-11-03T13:35:01.333Z,16.57
2018-11-03T13:37:29.958Z,16.60
2018-11-03T13:39:58.397Z,10.23
2018-11-03T13:42:26.917Z,8.03
2018-11-03T13:44:55.355Z,8.97
2018-11-03T13:47:23.885Z,13.20
2018-11-03T13:49:52.249Z,13.50
2018-11-03T13:52:20.874Z,11.47
2018-11-03T13:54:49.432Z,7.03
2018-11-03T13:57:17.928Z,9.83
2018-11-03T13:59:46.341Z,3.27
2018-11-03T14:02:14.729Z,6.10
2018-11-03T14:04:43.157Z,5.03
2018-11-03T14:07:11.600Z,4.67
2018-11-03T14:09:40.101Z,1.90
2018-11-03T14:12:08.534Z,3.50
2018-11-03T14:14:36.969Z,2.43
2018-11-03T14:17:05.491Z,3.17
2018-11-03T14:19:33.837Z,3.33
2018-11-03T14:22:02.287Z,3.30
2018-11-03T14:24:30.729Z,1.97
2018-11-03T14:26:59.165Z,2.17
2018-11-03T14:29:27.565Z,3.33
2018-11-03T14:31:56.042Z,1.70
2018-11-03T14:34:24.570Z,2.43
2018-11-03T14:36:52.987Z,2.70
2018-11-03T14:39:21.397Z,1.93
2018-11-03T14:41:49.938Z,3.63
2018-11-03T14:44:18.377Z,5.20
2018-11-03T14:46:46.828Z,1.97
2018-11-03T14:49:15.321Z,3.30
2018-11-03T14:51:43.743Z,2.57
2018-11-03T14:54:12.129Z,2.07
2018-11-03T14:56:40.634Z,2.03
2018-11-03T14:59:08.994Z,3.07
2018-11-03T15:01:37.455Z,3.33
2018-11-03T15:04:06.343Z,3.63
2018-11-03T15:06:34.762Z,4.27
2018-11-03T15:09:03.275Z,5.70
2018-11-03T15:11:31.906Z,5.23
2018-11-03T15:14:00.451Z,4.60
2018-11-03T15:16:28.805Z,3.17
2018-11-03T15:18:57.193Z,4.33
2018-11-03T15:21:25.602Z,3.27
2018-11-03T15:23:54.003Z,4.67
2018-11-03T15:26:22.417Z,3.83
2018-11-03T15:28:50.909Z,3.80
2018-11-03T15:31:19.338Z,8.27
2018-11-03T15:33:47.753Z,6.57
2018-11-03T15:36:16.192Z,5.90
2018-11-03T15:38:44.630Z,4.30
2018-11-03T15:41:13.060Z,3.40
2018-11-03T15:43:41.515Z,4.00
2018-11-03T15:46:09.943Z,3.50
2018-11-03T15:48:38.361Z,5.67
2018-11-03T15:51:06.767Z,9.67
2018-11-03T15:53:35.170Z,5.30
2018-11-03T15:56:03.650Z,6.70
2018-11-03T15:58:32.154Z,6.03
2018-11-03T16:01:00.601Z,6.73
2018-11-03T16:03:29.010Z,4.27
2018-11-03T16:05:57.557Z,8.47
2018-11-03T16:08:26.044Z,4.97
2018-11-03T16:10:54.452Z,7.30
2018-11-03T16:13:22.885Z,6.73
2018-11-03T16:15:51.278Z,6.87
2018-11-03T16:18:19.709Z,7.27
2018-11-03T16:20:48.111Z,8.40
2018-11-03T16:23:16.531Z,7.03
2018-11-03T16:25:45.040Z,6.47
2018-11-03T16:28:13.418Z,6.13
2018-11-03T16:30:41.880Z,7.57
2018-11-03T16:33:10.317Z,6.63
2018-11-03T16:35:38.846Z,6.57
2018-11-03T16:38:07.246Z,10.13
2018-11-03T16:40:35.705Z,6.23
2018-11-03T16:43:04.230Z,7.40
2018-11-03T16:45:32.730Z,7.10
2018-11-03T16:48:01.162Z,6.17
2018-11-03T16:50:29.608Z,7.17
2018-11-03T16:52:58.037Z,6.57
2018-11-03T16:55:26.757Z,6.23
2018-11-03T16:57:55.176Z,6.77
2018-11-03T17:00:23.616Z,7.97
2018-11-03T17:02:52.047Z,8.30
2018-11-03T17:05:20.511Z,7.73
2018-11-03T17:07:48.933Z,8.87
2018-11-03T17:10:17.457Z,10.27
2018-11-03T17:12:46.982Z,9.30
2018-11-03T17:15:16.030Z,13.07
2018-11-03T17:17:44.528Z,8.90
2018-11-03T17:20:13.077Z,8.37
2018-11-03T17:22:41.549Z,9.47
2018-11-03T17:25:11.236Z,7.83
2018-11-03T17:27:39.658Z,10.73
2018-11-03T17:30:11.611Z,8.97
2018-11-03T17:32:40.043Z,10.00
2018-11-03T17:35:08.514Z,12.03
2018-11-03T17:37:36.922Z,9.37
2018-11-03T17:40:06.632Z,11.60
2018-11-03T17:42:35.049Z,9.47
2018-11-03T17:45:03.513Z,9.93
2018-11-03T17:47:31.937Z,10.70
2018-11-03T17:50:00.363Z,9.67
2018-11-03T17:52:28.766Z,8.93
2018-11-03T17:54:57.290Z,9.43
2018-11-03T17:57:25.659Z,9.77
2018-11-03T17:59:54.120Z,11.87
2018-11-03T18:02:22.615Z,11.57
2018-11-03T18:04:51.137Z,14.00
2018-11-03T18:07:19.583Z,12.40
2018-11-03T18:09:47.964Z,11.77
2018-11-03T18:12:16.566Z,10.63
2018-11-03T18:14:45.001Z,12.87
2018-11-03T18:17:13.417Z,9.93
2018-11-03T18:19:41.972Z,11.23
2018-11-03T18:22:10.393Z,9.10
2018-11-03T18:24:38.891Z,9.90
2018-11-03T18:27:07.265Z,11.07
2018-11-03T18:29:35.714Z,11.03
2018-11-03T18:32:04.266Z,14.77
2018-11-03T18:34:32.785Z,15.07
2018-11-03T18:37:01.165Z,10.23
2018-11-03T18:39:29.610Z,15.53
2018-11-03T18:41:58.014Z,10.97
2018-11-03T18:44:26.522Z,12.93
2018-11-03T18:46:54.978Z,11.70
2018-11-03T18:49:23.402Z,11.73
2018-11-03T18:51:51.887Z,16.57
2018-11-03T18:54:20.260Z,13.13
2018-11-03T18:56:48.984Z,12.47
2018-11-03T18:59:17.706Z,9.33
2018-11-03T19:01:46.678Z,10.70
2018-11-03T19:04:15.370Z,11.33
2018-11-03T19:06:44.057Z,11.50
2018-11-03T19:09:12.840Z,12.43
2018-11-03T19:11:41.677Z,16.50
2018-11-03T19:14:10.329Z,14.47
2018-11-03T19:16:39.004Z,17.67
2018-11-03T19:19:07.674Z,15.63
2018-11-03T19:21:36.402Z,16.80
2018-11-03T19:24:05.145Z,19.40
2018-11-03T19:26:37.742Z,18.80
2018-11-03T19:29:06.492Z,19.83
2018-11-03T19:31:35.221Z,15.87
2018-11-03T19:34:03.881Z,16.70
2018-11-03T19:36:32.646Z,15.10
2018-11-03T19:39:01.360Z,17.70
2018-11-03T19:41:30.093Z,17.93
2018-11-03T19:43:58.690Z,17.17
2018-11-03T19:46:27.355Z,14.93
2018-11-03T19:48:56.077Z,14.23
2018-11-03T19:51:24.832Z,14.47
2018-11-03T19:53:53.615Z,15.53
2018-11-03T19:56:22.417Z,14.13
2018-11-03T19:58:51.187Z,13.60
2018-11-03T20:01:20.064Z,15.33
2018-11-03T20:03:48.740Z,16.73
2018-11-03T20:06:17.438Z,14.57
2018-11-03T20:08:46.130Z,15.37
2018-11-03T20:11:14.830Z,15.80
2018-11-03T20:13:43.524Z,17.60
2018-11-03T20:16:12.307Z,15.47
2018-11-03T20:18:40.966Z,17.53
2018-11-03T20:21:09.679Z,14.83
2018-11-03T20:23:38.409Z,14.23
2018-11-03T20:26:07.426Z,13.10
2018-11-03T20:28:36.026Z,14.73
2018-11-03T20:31:04.721Z,14.13
2018-11-03T20:33:33.397Z,14.87
2018-11-03T20:36:02.031Z,12.17
2018-11-03T20:38:32.768Z,12.97
2018-11-03T20:41:01.418Z,13.23
2018-11-03T20:43:33.721Z,10.83
2018-11-03T20:46:02.129Z,14.00
2018-11-03T20:48:30.553Z,12.17
2018-11-03T20:51:04.181Z,12.23
2018-11-03T20:53:32.635Z,11.57
2018-11-03T20:56:01.016Z,11.03
2018-11-03T20:58:29.481Z,10.80
2018-11-03T21:00:57.885Z,11.43
2018-11-03T21:03:26.340Z,12.87
2018-11-03T21:05:54.767Z,14.13
2018-11-03T21:08:23.257Z,13.80
2018-11-03T21:10:51.683Z,16.80
2018-11-03T21:13:20.116Z,15.20
2018-11-03T21:15:48.564Z,14.93
2018-11-03T21:18:17.018Z,12.87
2018-11-03T21:20:45.464Z,13.00
2018-11-03T21:23:13.983Z,14.03
2018-11-03T21:25:42.363Z,11.77
2018-11-03T21:28:10.769Z,17.77
2018-11-03T21:30:39.246Z,17.43
2018-11-03T21:33:07.807Z,14.77
2018-11-03T21:35:36.126Z,18.53
2018-11-03T21:38:04.686Z,16.47
2018-11-03T21:40:33.137Z,17.13
2018-11-03T21:43:01.629Z,16.17
2018-11-03T21:45:30.062Z,15.47
2018-11-03T21:47:58.554Z,16.93
2018-11-03T21:50:26.977Z,17.50
2018-11-03T21:52:55.420Z,17.03
2018-11-03T21:55:23.845Z,17.83
2018-11-03T21:57:53.342Z,19.20
2018-11-03T22:00:21.763Z,21.80
2018-11-03T22:02:50.224Z,20.83
2018-11-03T22:05:18.689Z,17.53
2018-11-03T22:07:47.145Z,18.43
2018-11-03T22:10:15.569Z,20.33
2018-11-03T22:12:44.261Z,16.93
2018-11-03T22:15:12.680Z,19.37
2018-11-03T22:17:41.743Z,17.57
2018-11-03T22:20:11.155Z,15.20
2018-11-03T22:22:39.802Z,18.00
2018-11-03T22:25:09.585Z,17.13
2018-11-03T22:27:38.502Z,15.40
2018-11-03T22:30:08.601Z,15.87
2018-11-03T22:32:37.085Z,16.20
2018-11-03T22:35:05.728Z,20.50
2018-11-03T22:37:34.230Z,16.20
2018-11-03T22:40:02.712Z,16.03
2018-11-03T22:42:31.151Z,18.80
2018-11-03T22:44:59.569Z,16.43
2018-11-03T22:47:28.034Z,17.87
2018-11-03T22:49:56.493Z,16.13
2018-11-03T22:52:24.938Z,14.63
2018-11-03T22:54:53.374Z,17.27
2018-11-03T22:57:21.809Z,17.13
2018-11-03T22:59:50.279Z,19.73
2018-11-03T23:02:18.704Z,16.50
2018-11-03T23:04:47.168Z,15.83
2018-11-03T23:07:15.603Z,18.50
2018-11-03T23:09:44.051Z,14.50
2018-11-03T23:12:12.483Z,15.33
2018-11-03T23:14:41.130Z,16.83
2018-11-03T23:17:09.648Z,17.67
2018-11-03T23:19:38.095Z,15.87
2018-11-03T23:22:06.982Z,19.53
2018-11-03T23:24:35.414Z,14.70
2018-11-03T23:27:03.878Z,13.07
2018-11-03T23:29:32.403Z,13.40
2018-11-03T23:32:00.815Z,14.90
2018-11-03T23:34:29.246Z,15.80
2018-11-03T23:36:57.697Z,15.20
2018-11-03T23:39:26.146Z,15.93
2018-11-03T23:41:54.565Z,15.40
2018-11-03T23:44:22.985Z,18.03
2018-11-03T23:46:51.414Z,15.17
2018-11-03T23:49:19.940Z,15.00
2018-11-03T23:51:48.454Z,15.50
2018-11-03T23:54:16.877Z,15.33
2018-11-03T23:56:45.327Z,14.97
2018-11-03T23:59:13.796Z,16.70
